Time;durP1;ratioP1;P1;durP2;ratioP2;P2;SDS_P1;SDS_P2;PMS_P1;PMS_P2;Temp;Humidity;BMP_temperature;BMP_pressure;BME280_temperature;BME280_humidity;BME280_pressure;Samples;Min_cycle;Max_cycle;Signal;HPM_P1;HPM_P2
2022/11/30 00:01:18;;;;;;;86.40;26.53;;;-1.10;99.90;;;;;;4386255;28;659652;-63
2022/11/30 00:04:05;;;;;;;85.03;26.67;;;-1.10;99.90;;;;;;4394358;28;658687;-65
2022/11/30 00:06:56;;;;;;;72.82;23.23;;;-1.10;99.90;;;;;;4403022;28;658985;-63
2022/11/30 00:09:43;;;;;;;81.53;26.87;;;-1.10;99.90;;;;;;4378569;28;659123;-63
2022/11/30 00:12:31;;;;;;;75.30;26.40;;;-1.10;99.90;;;;;;4381792;28;660250;-65
2022/11/30 00:15:19;;;;;;;75.63;23.43;;;-1.10;99.90;;;;;;4400927;28;658853;-65
2022/11/30 00:18:06;;;;;;;82.27;24.83;;;-1.00;99.90;;;;;;4379578;28;658896;-64
2022/11/30 00:20:54;;;;;;;84.77;26.47;;;-1.00;99.90;;;;;;4401121;28;660415;-63
2022/11/30 00:23:42;;;;;;;70.18;23.50;;;-1.10;99.90;;;;;;4375664;28;660536;-63
2022/11/30 00:26:29;;;;;;;75.63;22.50;;;-1.00;99.90;;;;;;4400567;28;659601;-63
2022/11/30 00:29:18;;;;;;;85.30;26.90;;;-1.10;99.90;;;;;;4380837;28;658592;-63
2022/11/30 00:32:05;;;;;;;84.10;26.70;;;-1.10;99.90;;;;;;4392210;28;659089;-64
2022/11/30 00:34:52;;;;;;;71.87;24.73;;;-1.10;99.90;;;;;;4401923;28;659468;-65
2022/11/30 00:37:40;;;;;;;73.07;24.33;;;-1.10;99.90;;;;;;4400898;28;658590;-64
2022/11/30 00:40:27;;;;;;;80.30;23.13;;;-1.10;99.90;;;;;;4400581;28;658936;-62
2022/11/30 00:43:14;;;;;;;89.90;25.20;;;-1.20;99.90;;;;;;4416515;28;658740;-63
2022/11/30 00:46:03;;;;;;;86.80;26.27;;;-1.10;99.90;;;;;;4394546;28;658249;-63
2022/11/30 00:48:50;;;;;;;81.10;25.00;;;-1.10;99.90;;;;;;4409396;28;659205;-64
2022/11/30 00:51:38;;;;;;;86.82;26.33;;;-1.10;99.90;;;;;;4424527;28;659728;-62
2022/11/30 00:54:25;;;;;;;84.60;25.43;;;-1.10;99.90;;;;;;4416477;28;658673;-64
2022/11/30 00:57:12;;;;;;;92.40;28.90;;;-1.10;99.90;;;;;;4423496;28;658794;-62
2022/11/30 00:59:59;;;;;;;84.63;26.73;;;-1.10;99.90;;;;;;4425064;28;659095;-64
2022/11/30 01:02:48;;;;;;;85.13;24.23;;;-1.20;99.90;;;;;;4394800;28;658735;-64
2022/11/30 01:05:35;;;;;;;79.30;26.43;;;-1.10;99.90;;;;;;4407037;28;659524;-65
2022/11/30 01:08:24;;;;;;;69.67;24.33;;;-1.10;99.90;;;;;;4421215;28;659082;-63
2022/11/30 01:11:14;;;;;;;110.33;29.73;;;-1.20;99.90;;;;;;4405040;28;658687;-64
2022/11/30 01:14:01;;;;;;;82.17;25.63;;;-1.10;99.90;;;;;;4397971;28;659460;-63
2022/11/30 01:16:48;;;;;;;76.77;24.90;;;-1.10;99.90;;;;;;4419214;28;659087;-63
2022/11/30 01:19:37;;;;;;;74.40;24.10;;;-1.20;99.90;;;;;;4395729;28;659917;-63
2022/11/30 01:22:24;;;;;;;80.27;25.83;;;-1.20;99.90;;;;;;4419242;28;658588;-63
2022/11/30 01:25:11;;;;;;;81.30;24.63;;;-1.20;99.90;;;;;;4401052;28;659124;-64
2022/11/30 01:27:58;;;;;;;138.95;29.80;;;-1.20;99.90;;;;;;4422589;28;660380;-64
2022/11/30 01:30:45;;;;;;;114.97;27.23;;;-1.20;99.90;;;;;;4399789;28;660321;-64
2022/11/30 01:33:32;;;;;;;107.53;29.00;;;-1.20;99.90;;;;;;4428783;28;660138;-63
2022/11/30 01:36:21;;;;;;;109.93;28.83;;;-1.20;99.90;;;;;;4418487;28;659398;-65
2022/11/30 01:39:09;;;;;;;87.57;25.60;;;-1.20;99.90;;;;;;4390029;28;660576;-63
2022/11/30 01:41:56;;;;;;;82.27;25.93;;;-1.20;99.90;;;;;;4396232;28;660070;-64
2022/11/30 01:44:51;;;;;;;77.40;23.60;;;-1.20;99.90;;;;;;4417692;28;659779;-64
2022/11/30 01:47:39;;;;;;;78.87;25.37;;;-1.20;99.90;;;;;;4395643;28;659308;-63
2022/11/30 01:50:27;;;;;;;139.03;31.17;;;-1.20;99.90;;;;;;4398403;28;658257;-63
2022/11/30 01:53:15;;;;;;;143.13;33.47;;;-1.20;99.90;;;;;;4418037;28;659613;-63
2022/11/30 01:56:02;;;;;;;81.07;23.97;;;-1.20;99.90;;;;;;4392593;28;660412;-62
2022/11/30 01:58:49;;;;;;;70.83;26.33;;;-1.20;99.90;;;;;;4419103;28;658904;-64
2022/11/30 02:01:36;;;;;;;87.40;28.07;;;-1.20;99.90;;;;;;4394818;28;659307;-63
2022/11/30 02:04:26;;;;;;;76.77;25.00;;;-1.20;99.90;;;;;;4417634;28;658618;-62
2022/11/30 02:07:13;;;;;;;82.70;26.23;;;-1.20;99.90;;;;;;4397485;28;659464;-64
2022/11/30 02:10:01;;;;;;;96.23;28.10;;;-1.20;99.90;;;;;;4399653;28;659786;-64
2022/11/30 02:13:01;;;;;;;125.53;28.43;;;-1.20;99.90;;;;;;4416677;28;659157;-65
2022/11/30 02:15:51;;;;;;;102.17;27.10;;;-1.20;99.90;;;;;;4390641;28;660484;-64
2022/11/30 02:18:42;;;;;;;96.13;26.57;;;-1.20;99.90;;;;;;4391491;28;660662;-65
2022/11/30 02:21:32;;;;;;;98.50;26.03;;;-1.20;99.90;;;;;;4391266;28;658669;-63
2022/11/30 02:24:39;;;;;;;70.60;24.53;;;-1.20;99.90;;;;;;4388105;28;658761;-63
2022/11/30 02:27:35;;;;;;;78.83;23.53;;;-1.30;99.90;;;;;;4367510;28;658992;-64
2022/11/30 02:30:24;;;;;;;75.15;25.23;;;-1.30;99.90;;;;;;4390780;28;659305;-63
2022/11/30 02:33:12;;;;;;;97.63;30.40;;;-1.40;99.90;;;;;;4404295;28;658930;-64
2022/11/30 02:35:59;;;;;;;72.15;23.60;;;-1.40;99.90;;;;;;4413463;28;658418;-64
2022/11/30 02:38:46;;;;;;;72.07;23.77;;;-1.30;99.90;;;;;;4393285;28;659243;-63
2022/11/30 02:41:37;;;;;;;75.70;25.13;;;-1.40;99.90;;;;;;4412869;28;659250;-63
2022/11/30 02:44:24;;;;;;;79.03;25.60;;;-1.40;99.90;;;;;;4370866;28;659208;-63
2022/11/30 02:47:20;;;;;;;86.90;23.03;;;-1.40;99.90;;;;;;4371746;28;658950;-63
2022/11/30 02:50:09;;;;;;;82.93;24.60;;;-1.30;99.90;;;;;;4376589;28;658817;-63
2022/11/30 02:52:56;;;;;;;89.53;27.10;;;-1.40;99.90;;;;;;4378027;28;659053;-63
2022/11/30 02:55:43;;;;;;;90.73;27.27;;;-1.40;99.90;;;;;;4396867;28;660012;-63
2022/11/30 02:58:30;;;;;;;129.43;37.70;;;-1.30;99.90;;;;;;4384362;28;659434;-63
2022/11/30 03:01:17;;;;;;;97.67;31.13;;;-1.30;99.90;;;;;;4660257;28;660991;-62
2022/11/30 03:04:06;;;;;;;73.83;26.10;;;-1.40;99.90;;;;;;4596863;28;535600;-63
2022/11/30 03:06:53;;;;;;;65.33;23.20;;;-1.30;99.90;;;;;;4369830;28;658930;-63
2022/11/30 03:09:40;;;;;;;83.35;26.67;;;-1.30;99.90;;;;;;4381288;28;659145;-65
2022/11/30 03:12:27;;;;;;;87.47;26.30;;;-1.30;99.90;;;;;;4405343;28;660250;-64
2022/11/30 03:15:14;;;;;;;72.40;24.73;;;-1.20;99.90;;;;;;4402032;28;659495;-64
2022/11/30 03:18:01;;;;;;;90.37;26.90;;;-1.20;99.90;;;;;;4376853;28;658564;-63
2022/11/30 03:20:50;;;;;;;93.90;28.40;;;-1.30;99.90;;;;;;4396915;28;658591;-63
2022/11/30 03:23:37;;;;;;;91.67;28.33;;;-1.30;99.90;;;;;;4385068;28;658455;-64
2022/11/30 03:26:24;;;;;;;357.97;28.63;;;-1.30;99.90;;;;;;4393709;28;658408;-63
2022/11/30 03:29:11;;;;;;;82.67;27.63;;;-1.20;99.90;;;;;;4374134;28;659832;-63
2022/11/30 03:31:58;;;;;;;82.60;25.97;;;-1.20;99.90;;;;;;4399697;28;658299;-63
2022/11/30 03:34:45;;;;;;;75.73;22.87;;;-1.20;99.90;;;;;;4383285;28;658677;-64
2022/11/30 03:37:34;;;;;;;79.00;22.97;;;-1.30;99.90;;;;;;4397611;28;659727;-62
2022/11/30 03:40:21;;;;;;;71.40;24.70;;;-1.30;99.90;;;;;;4380900;28;659090;-63
2022/11/30 03:43:08;;;;;;;91.70;24.80;;;-1.30;99.90;;;;;;4400521;28;659355;-63
2022/11/30 03:45:55;;;;;;;92.88;23.05;;;-1.40;99.90;;;;;;4376913;28;658961;-65
2022/11/30 03:48:42;;;;;;;113.03;27.60;;;-1.40;99.90;;;;;;4399011;28;659807;-63
2022/11/30 03:51:29;;;;;;;130.33;26.90;;;-1.40;99.90;;;;;;4390750;28;659548;-63
2022/11/30 03:54:18;;;;;;;93.93;25.43;;;-1.50;99.90;;;;;;4378076;28;659668;-63
2022/11/30 03:57:05;;;;;;;76.30;22.20;;;-1.50;99.90;;;;;;4384882;28;661090;-65
2022/11/30 03:59:52;;;;;;;80.97;23.23;;;-1.50;99.90;;;;;;4405078;28;659692;-63
2022/11/30 04:02:39;;;;;;;82.43;26.03;;;-1.50;99.90;;;;;;4405642;28;659940;-63
2022/11/30 04:05:26;;;;;;;73.53;23.37;;;-1.50;99.90;;;;;;4381126;28;659067;-64
2022/11/30 04:08:13;;;;;;;65.77;22.53;;;-1.50;99.90;;;;;;4401129;28;659529;-64
2022/11/30 04:11:02;;;;;;;239.67;28.20;;;-1.50;99.90;;;;;;4375143;28;658451;-63
2022/11/30 04:13:49;;;;;;;107.60;25.73;;;-1.50;99.90;;;;;;4392486;28;659724;-63
2022/11/30 04:16:36;;;;;;;93.10;25.60;;;-1.50;99.90;;;;;;4380089;28;659757;-63
2022/11/30 04:19:23;;;;;;;89.13;23.98;;;-1.60;99.90;;;;;;4395129;28;658496;-64
2022/11/30 04:22:10;;;;;;;80.90;24.43;;;-1.60;99.90;;;;;;4377566;28;659194;-65
2022/11/30 04:24:57;;;;;;;69.43;22.77;;;-1.50;99.90;;;;;;4407251;28;658752;-63
2022/11/30 04:27:47;;;;;;;55.90;21.67;;;-1.50;99.90;;;;;;4400699;28;659244;-64
2022/11/30 04:30:34;;;;;;;64.03;22.73;;;-1.60;99.90;;;;;;4371646;28;659248;-62
2022/11/30 04:33:21;;;;;;;73.07;24.63;;;-1.60;99.90;;;;;;4379667;28;658406;-64
2022/11/30 04:36:15;;;;;;;60.00;21.23;;;-1.60;99.90;;;;;;4393612;28;659151;-63
2022/11/30 04:39:02;;;;;;;97.97;22.80;;;-1.50;99.90;;;;;;4354100;28;659814;-63
2022/11/30 04:41:49;;;;;;;87.13;22.00;;;-1.50;99.90;;;;;;4398652;28;658653;-63
2022/11/30 04:44:39;;;;;;;77.87;23.00;;;-1.50;99.90;;;;;;4378085;28;660812;-63
2022/11/30 04:47:26;;;;;;;68.67;23.67;;;-1.50;99.90;;;;;;4376341;28;659119;-64
2022/11/30 04:50:13;;;;;;;97.97;23.17;;;-1.50;99.90;;;;;;4405611;28;659798;-63
2022/11/30 04:53:00;;;;;;;93.15;22.85;;;-1.60;99.90;;;;;;4385638;28;658368;-64
2022/11/30 04:55:47;;;;;;;62.43;22.63;;;-1.60;99.90;;;;;;4406248;28;659255;-63
2022/11/30 04:58:34;;;;;;;94.87;26.53;;;-1.60;99.90;;;;;;4405804;28;659492;-63
2022/11/30 05:01:23;;;;;;;86.77;25.80;;;-1.60;99.90;;;;;;4670037;28;659291;-65
2022/11/30 05:04:10;;;;;;;83.47;23.17;;;-1.60;99.90;;;;;;4576958;28;535846;-65
2022/11/30 05:06:57;;;;;;;89.15;28.45;;;-1.50;99.90;;;;;;4406552;28;658509;-64
2022/11/30 05:09:44;;;;;;;75.30;23.57;;;-1.60;99.90;;;;;;4405312;28;659978;-64
2022/11/30 05:12:31;;;;;;;76.60;22.60;;;-1.60;99.90;;;;;;4388500;28;659753;-63
2022/11/30 05:15:18;;;;;;;67.43;21.10;;;-1.60;99.90;;;;;;4407751;28;658422;-64
2022/11/30 05:18:07;;;;;;;56.57;21.77;;;-1.60;99.90;;;;;;4383265;28;658750;-63
2022/11/30 05:20:54;;;;;;;63.73;21.77;;;-1.70;99.90;;;;;;4398991;28;658300;-63
2022/11/30 05:23:41;;;;;;;66.25;21.77;;;-1.70;99.90;;;;;;4385177;28;658683;-63
2022/11/30 05:26:28;;;;;;;57.65;19.48;;;-1.60;99.90;;;;;;4404738;28;659287;-64
2022/11/30 05:29:15;;;;;;;62.40;21.60;;;-1.60;99.90;;;;;;4382056;28;658597;-64
2022/11/30 05:32:02;;;;;;;76.60;26.87;;;-1.70;99.90;;;;;;4398598;28;659941;-64
2022/11/30 05:34:51;;;;;;;65.37;23.33;;;-1.70;99.90;;;;;;4400729;28;658525;-64
2022/11/30 05:37:38;;;;;;;69.57;23.33;;;-1.70;99.90;;;;;;4403453;28;659348;-65
2022/11/30 05:40:27;;;;;;;75.40;24.90;;;-1.70;99.90;;;;;;4383369;28;659056;-64
2022/11/30 05:43:14;;;;;;;71.17;24.13;;;-1.70;99.90;;;;;;4402246;28;659120;-64
2022/11/30 05:46:01;;;;;;;67.93;23.50;;;-1.60;99.90;;;;;;4381289;28;658612;-64
2022/11/30 05:48:48;;;;;;;63.73;22.73;;;-1.70;99.90;;;;;;4400314;28;660515;-63
2022/11/30 05:51:36;;;;;;;67.23;23.03;;;-1.60;99.90;;;;;;4381097;28;659387;-65
2022/11/30 05:54:23;;;;;;;66.03;22.23;;;-1.60;99.90;;;;;;4396152;28;659061;-63
2022/11/30 05:57:11;;;;;;;61.43;22.53;;;-1.60;99.90;;;;;;4375847;28;658714;-65
2022/11/30 05:59:58;;;;;;;70.20;23.80;;;-1.50;99.90;;;;;;4397977;28;659230;-63
2022/11/30 06:02:45;;;;;;;61.28;22.88;;;-1.50;99.90;;;;;;4384592;28;659164;-64
2022/11/30 06:05:34;;;;;;;67.03;24.30;;;-1.60;99.90;;;;;;4402810;28;660445;-64
2022/11/30 06:08:22;;;;;;;62.37;23.93;;;-1.60;99.90;;;;;;4383087;28;659472;-64
2022/11/30 06:11:09;;;;;;;65.00;22.60;;;-1.60;99.90;;;;;;4396486;28;661029;-64
2022/11/30 06:13:56;;;;;;;63.13;23.23;;;-1.60;99.90;;;;;;4378553;28;659520;-63
2022/11/30 06:16:44;;;;;;;65.17;22.67;;;-1.60;99.90;;;;;;4397403;28;659265;-64
2022/11/30 06:19:31;;;;;;;68.63;23.60;;;-1.60;99.90;;;;;;4376935;28;659042;-64
2022/11/30 06:22:18;;;;;;;76.37;25.60;;;-1.60;99.90;;;;;;4400771;28;658885;-64
2022/11/30 06:25:07;;;;;;;69.18;25.83;;;-1.60;99.90;;;;;;4387522;28;658422;-65
2022/11/30 06:27:54;;;;;;;91.83;26.43;;;-1.60;99.90;;;;;;4398950;28;659090;-63
2022/11/30 06:30:41;;;;;;;67.03;24.07;;;-1.60;99.90;;;;;;4374072;28;658686;-63
2022/11/30 06:33:28;;;;;;;78.23;25.07;;;-1.60;99.90;;;;;;4396311;28;659255;-65
2022/11/30 06:36:20;;;;;;;82.57;26.90;;;-1.60;99.90;;;;;;4384220;28;659882;-64
2022/11/30 06:39:08;;;;;;;94.50;25.77;;;-1.60;99.90;;;;;;4373733;28;660328;-63
2022/11/30 06:41:57;;;;;;;68.83;23.23;;;-1.50;99.90;;;;;;4376322;28;658781;-63
2022/11/30 06:44:44;;;;;;;64.30;23.42;;;-1.60;99.90;;;;;;4396751;28;659524;-65
2022/11/30 06:47:31;;;;;;;72.33;25.00;;;-1.60;99.90;;;;;;4369917;28;661200;-62
2022/11/30 06:50:18;;;;;;;78.73;25.93;;;-1.50;99.90;;;;;;4399970;28;658194;-63
2022/11/30 06:53:06;;;;;;;78.70;25.77;;;-1.60;99.90;;;;;;4379766;28;659349;-64
2022/11/30 06:55:53;;;;;;;68.40;23.33;;;-1.60;99.90;;;;;;4401841;28;658954;-64
2022/11/30 06:58:41;;;;;;;73.53;26.40;;;-1.50;99.90;;;;;;4385443;28;658832;-65
2022/11/30 07:01:28;;;;;;;109.30;29.37;;;-1.50;99.90;;;;;;4695056;28;658737;-63
2022/11/30 07:04:16;;;;;;;61.93;22.70;;;-1.60;99.90;;;;;;4539216;28;537611;-64
2022/11/30 07:07:03;;;;;;;61.47;22.60;;;-1.60;99.90;;;;;;4404203;28;659055;-63
2022/11/30 07:09:50;;;;;;;69.68;24.50;;;-1.50;99.90;;;;;;4376086;28;660027;-65
2022/11/30 07:12:38;;;;;;;61.30;22.90;;;-1.50;99.90;;;;;;4393384;28;660150;-63
2022/11/30 07:15:26;;;;;;;63.83;21.90;;;-1.50;99.90;;;;;;4386451;28;658549;-65
2022/11/30 07:18:13;;;;;;;79.33;24.43;;;-1.60;99.90;;;;;;4394391;28;658955;-64
2022/11/30 07:21:01;;;;;;;69.43;25.33;;;-1.60;99.90;;;;;;4377258;28;658953;-63
2022/11/30 07:27:01;;;;;;;61.47;20.03;;;-1.50;99.90;;;;;;4362066;28;658387;-63
2022/11/30 07:29:50;;;;;;;60.87;22.03;;;-1.50;99.90;;;;;;4399759;28;659368;-64
2022/11/30 07:32:38;;;;;;;69.63;24.23;;;-1.50;99.90;;;;;;4380028;28;659336;-64
2022/11/30 07:35:25;;;;;;;68.50;23.57;;;-1.50;99.90;;;;;;4374464;28;659030;-63
2022/11/30 07:38:13;;;;;;;58.93;22.07;;;-1.50;99.90;;;;;;4403018;28;659847;-63
2022/11/30 07:41:00;;;;;;;59.80;20.90;;;-1.50;99.90;;;;;;4390476;28;658727;-65
2022/11/30 07:43:47;;;;;;;60.95;22.40;;;-1.50;99.90;;;;;;4415812;28;658587;-64
2022/11/30 07:46:34;;;;;;;78.73;26.83;;;-1.50;99.90;;;;;;4410674;28;659049;-63
2022/11/30 07:49:23;;;;;;;70.70;23.03;;;-1.40;99.90;;;;;;4392312;28;659066;-64
2022/11/30 07:52:10;;;;;;;53.30;20.13;;;-1.40;99.90;;;;;;4398844;28;659254;-65
2022/11/30 07:54:57;;;;;;;52.95;20.98;;;-1.40;99.90;;;;;;4422194;28;658691;-64
2022/11/30 07:57:44;;;;;;;67.53;24.83;;;-1.40;99.90;;;;;;4412669;28;658554;-63
2022/11/30 08:00:31;;;;;;;61.03;23.53;;;-1.40;99.90;;;;;;4388978;28;660359;-62
2022/11/30 08:03:18;;;;;;;63.07;25.53;;;-1.30;99.90;;;;;;4412290;28;659887;-64
2022/11/30 08:06:08;;;;;;;68.40;24.30;;;-1.30;99.90;;;;;;4397519;28;658788;-64
2022/11/30 08:08:57;;;;;;;58.93;24.27;;;-1.30;99.90;;;;;;4394267;28;658876;-64
2022/11/30 08:11:44;;;;;;;60.33;21.60;;;-1.30;99.90;;;;;;4409737;28;658628;-65
2022/11/30 08:14:31;;;;;;;54.10;20.83;;;-1.30;99.90;;;;;;4395101;28;658550;-63
2022/11/30 08:17:18;;;;;;;59.40;21.90;;;-1.30;99.90;;;;;;4412904;28;660405;-64
2022/11/30 08:20:06;;;;;;;47.90;18.60;;;-1.20;99.90;;;;;;4390254;28;658207;-65
2022/11/30 08:22:55;;;;;;;56.37;20.73;;;-1.20;99.90;;;;;;4409606;28;659777;-64
2022/11/30 08:25:42;;;;;;;57.03;21.90;;;-1.20;99.90;;;;;;4394203;28;659569;-63
2022/11/30 08:28:29;;;;;;;56.17;21.50;;;-1.30;99.90;;;;;;4412563;28;657950;-63
2022/11/30 08:31:17;;;;;;;52.30;20.13;;;-1.30;99.90;;;;;;4386989;28;658688;-63
2022/11/30 08:34:05;;;;;;;61.73;21.83;;;-1.30;99.90;;;;;;4411008;28;658569;-63
2022/11/30 08:36:52;;;;;;;52.28;20.38;;;-1.40;99.90;;;;;;4393279;28;658840;-63
2022/11/30 08:39:41;;;;;;;57.00;18.93;;;-1.40;99.90;;;;;;4410709;28;658628;-64
2022/11/30 08:42:28;;;;;;;54.60;21.30;;;-1.40;99.90;;;;;;4387982;28;659326;-63
2022/11/30 08:45:15;;;;;;;85.05;20.30;;;-1.40;99.90;;;;;;4400556;28;658834;-65
2022/11/30 08:48:02;;;;;;;48.90;19.87;;;-1.30;99.90;;;;;;4420441;28;659497;-63
2022/11/30 08:50:50;;;;;;;45.07;18.77;;;-1.20;99.90;;;;;;4410280;28;658481;-65
2022/11/30 08:53:37;;;;;;;56.30;20.67;;;-1.10;99.90;;;;;;4420686;28;658611;-63
2022/11/30 08:56:26;;;;;;;68.13;20.53;;;-1.10;99.90;;;;;;4416993;28;658488;-64
2022/11/30 08:59:13;;;;;;;60.47;22.40;;;-1.10;99.90;;;;;;4391153;28;658675;-64
2022/11/30 09:02:00;;;;;;;72.47;24.17;;;-1.10;99.90;;;;;;4824741;28;659249;-64
2022/11/30 09:04:47;;;;;;;72.90;23.47;;;-1.10;99.90;;;;;;4446541;28;658668;-63
2022/11/30 09:07:35;;;;;;;53.80;21.23;;;-1.20;99.90;;;;;;4409599;28;660182;-64
2022/11/30 09:10:22;;;;;;;61.78;21.55;;;-1.20;99.90;;;;;;4418567;28;658654;-64
2022/11/30 09:13:11;;;;;;;53.97;21.97;;;-1.20;99.90;;;;;;4416699;28;659027;-63
2022/11/30 09:15:58;;;;;;;56.77;22.50;;;-1.20;99.90;;;;;;4397738;28;659031;-64
2022/11/30 09:18:45;;;;;;;55.03;20.83;;;-1.10;99.90;;;;;;4399912;28;658965;-65
2022/11/30 09:21:32;;;;;;;50.33;20.73;;;-1.10;99.90;;;;;;4420485;28;659406;-63
2022/11/30 09:24:20;;;;;;;55.10;21.43;;;-1.00;99.90;;;;;;4414046;28;658892;-65
2022/11/30 09:27:07;;;;;;;53.63;19.87;;;-1.00;99.90;;;;;;4421448;28;659405;-65
2022/11/30 09:29:56;;;;;;;63.30;23.20;;;-1.00;99.90;;;;;;4412825;28;658410;-63
2022/11/30 09:32:43;;;;;;;62.27;22.67;;;-1.00;99.90;;;;;;4396158;28;660405;-63
2022/11/30 09:35:30;;;;;;;64.53;24.17;;;-1.00;99.90;;;;;;4398867;28;658445;-64
2022/11/30 09:38:17;;;;;;;61.77;23.77;;;-0.90;99.90;;;;;;4418157;28;659459;-63
2022/11/30 09:41:05;;;;;;;54.73;22.03;;;-0.80;99.90;;;;;;4413954;28;660261;-63
2022/11/30 09:43:55;;;;;;;54.63;22.17;;;-0.80;99.90;;;;;;4389424;28;659179;-63
2022/11/30 09:46:46;;;;;;;66.27;24.60;;;-0.70;99.90;;;;;;4397673;28;659331;-65
2022/11/30 09:49:34;;;;;;;53.50;20.53;;;-0.60;99.90;;;;;;4394226;28;659115;-63
2022/11/30 09:52:24;;;;;;;51.88;21.92;;;-0.60;99.90;;;;;;4397293;28;658181;-64
2022/11/30 09:55:13;;;;;;;56.20;22.93;;;-0.50;99.90;;;;;;4401303;28;658371;-65
2022/11/30 09:58:01;;;;;;;58.23;24.57;;;-0.40;99.90;;;;;;4394594;28;658927;-65
2022/11/30 10:00:48;;;;;;;56.47;21.30;;;-0.40;99.90;;;;;;4412703;28;658499;-64
2022/11/30 10:03:37;;;;;;;82.30;23.53;;;-0.40;99.90;;;;;;4396605;28;658676;-64
2022/11/30 10:06:27;;;;;;;59.47;22.07;;;-0.30;99.90;;;;;;4416838;28;659630;-63
2022/11/30 10:09:25;;;;;;;56.23;22.63;;;-0.30;99.90;;;;;;4391953;28;658616;-65
2022/11/30 10:12:14;;;;;;;54.90;23.00;;;-0.30;99.90;;;;;;4369473;28;660437;-65
2022/11/30 10:15:09;;;;;;;55.73;24.00;;;-0.30;99.90;;;;;;4397321;28;658832;-65
2022/11/30 10:17:57;;;;;;;56.10;24.00;;;-0.30;99.90;;;;;;4368625;28;659890;-63
2022/11/30 10:20:51;;;;;;;51.60;21.83;;;-0.20;99.90;;;;;;4415133;28;659277;-64
2022/11/30 10:24:01;;;;;;;51.57;21.90;;;-0.20;99.90;;;;;;4398381;28;658849;-63
2022/11/30 10:26:53;;;;;;;47.77;19.20;;;-0.20;99.90;;;;;;4396802;28;659422;-64
2022/11/30 10:29:41;;;;;;;47.20;19.03;;;-0.20;99.90;;;;;;4388064;28;659305;-65
2022/11/30 10:32:32;;;;;;;44.47;19.87;;;-0.20;99.90;;;;;;4411347;28;658097;-63
2022/11/30 10:35:23;;;;;;;47.70;21.40;;;-0.20;99.90;;;;;;4398267;28;659800;-65
2022/11/30 10:38:14;;;;;;;41.10;19.27;;;-0.10;99.90;;;;;;4375031;28;658582;-65
2022/11/30 10:41:03;;;;;;;48.70;19.93;;;-0.10;99.90;;;;;;4394194;28;659964;-63
2022/11/30 10:43:52;;;;;;;43.63;19.47;;;-0.20;99.90;;;;;;4392745;28;660742;-64
2022/11/30 10:46:43;;;;;;;53.03;21.93;;;-0.30;99.90;;;;;;4409267;28;659942;-65
2022/11/30 10:49:30;;;;;;;44.67;19.30;;;-0.20;99.90;;;;;;4394340;28;658493;-64
2022/11/30 10:52:19;;;;;;;38.67;17.93;;;-0.10;99.90;;;;;;4412697;28;659147;-63
2022/11/30 10:55:13;;;;;;;43.30;20.33;;;0.00;99.90;;;;;;4394125;28;658476;-63
2022/11/30 10:58:02;;;;;;;37.97;18.77;;;-0.10;99.90;;;;;;4405161;28;658500;-65
2022/11/30 11:00:53;;;;;;;37.00;17.67;;;0.00;99.90;;;;;;4564529;28;659254;-63
2022/11/30 11:03:40;;;;;;;40.53;19.07;;;0.00;99.90;;;;;;4697004;28;534600;-66
2022/11/30 11:06:27;;;;;;;40.70;19.05;;;-0.10;99.90;;;;;;4418566;28;657471;-64
2022/11/30 11:09:34;;;;;;;42.80;19.57;;;-0.10;99.90;;;;;;4409564;28;658271;-65
2022/11/30 11:12:25;;;;;;;42.60;20.43;;;-0.10;99.90;;;;;;4394304;28;658656;-64
2022/11/30 11:15:20;;;;;;;48.43;20.83;;;0.00;99.90;;;;;;4397636;28;659317;-63
2022/11/30 11:18:24;;;;;;;50.77;23.70;;;0.00;99.90;;;;;;4368316;28;658895;-65
2022/11/30 11:21:16;;;;;;;56.73;23.43;;;0.00;99.90;;;;;;4369175;28;657775;-64
2022/11/30 11:24:08;;;;;;;51.87;23.40;;;0.00;99.90;;;;;;4396820;28;658245;-64
2022/11/30 11:26:55;;;;;;;49.88;23.02;;;0.00;99.90;;;;;;4396942;28;657562;-64
2022/11/30 11:29:44;;;;;;;45.27;19.40;;;-0.10;99.90;;;;;;4417118;28;658618;-63
2022/11/30 11:32:31;;;;;;;47.47;21.33;;;0.00;99.90;;;;;;4394311;28;658593;-65
2022/11/30 11:35:35;;;;;;;39.07;19.13;;;-0.20;99.90;;;;;;4413747;28;658942;-65
2022/11/30 11:38:24;;;;;;;39.45;19.63;;;-0.20;99.90;;;;;;4397339;28;658265;-63
2022/11/30 11:41:15;;;;;;;31.80;16.10;;;-0.30;99.90;;;;;;4392335;28;658906;-64
2022/11/30 11:44:03;;;;;;;35.70;17.87;;;-0.30;99.90;;;;;;4396048;28;658970;-63
2022/11/30 11:46:55;;;;;;;36.13;17.53;;;-0.40;99.90;;;;;;4391671;28;658565;-64
2022/11/30 11:49:42;;;;;;;33.87;17.03;;;-0.40;99.90;;;;;;4393531;28;659021;-64
2022/11/30 11:52:29;;;;;;;38.40;18.52;;;-0.40;99.90;;;;;;4418094;28;659018;-64
2022/11/30 11:55:17;;;;;;;40.40;18.60;;;-0.40;99.90;;;;;;4397713;28;659411;-65
2022/11/30 11:58:04;;;;;;;41.23;20.57;;;-0.40;99.90;;;;;;4408238;28;658749;-64
2022/11/30 12:00:51;;;;;;;36.90;19.30;;;-0.40;99.90;;;;;;4397583;28;659217;-63
2022/11/30 12:03:43;;;;;;;39.53;18.35;;;-0.40;99.90;;;;;;4419486;28;659557;-64
2022/11/30 12:06:31;;;;;;;36.50;18.03;;;-0.30;99.90;;;;;;4371640;28;659372;-63
2022/11/30 12:09:19;;;;;;;38.23;18.53;;;-0.40;99.90;;;;;;4414448;28;659126;-65
2022/11/30 12:12:10;;;;;;;42.33;20.17;;;-0.40;99.90;;;;;;4391021;28;658566;-64
2022/11/30 12:14:57;;;;;;;36.67;17.00;;;-0.40;99.90;;;;;;4393684;28;659803;-65
2022/11/30 12:17:50;;;;;;;43.60;20.07;;;-0.50;99.90;;;;;;4418487;28;658432;-64
2022/11/30 12:20:47;;;;;;;37.37;18.93;;;-0.50;99.90;;;;;;4373541;28;659177;-64
2022/11/30 12:23:44;;;;;;;35.47;16.23;;;-0.50;99.90;;;;;;4399467;28;658673;-63
2022/11/30 12:26:36;;;;;;;35.83;16.93;;;-0.50;99.90;;;;;;4395536;28;659400;-63
2022/11/30 12:29:24;;;;;;;34.87;15.80;;;-0.50;99.90;;;;;;4390818;28;658458;-64
2022/11/30 12:32:20;;;;;;;30.00;14.03;;;-0.60;99.90;;;;;;4394708;28;659896;-65
2022/11/30 12:35:16;;;;;;;35.03;17.03;;;-0.60;99.90;;;;;;4398242;28;658451;-63
2022/11/30 12:38:10;;;;;;;37.30;16.87;;;-0.60;99.90;;;;;;4398850;28;659437;-64
2022/11/30 12:41:00;;;;;;;36.07;17.53;;;-0.70;99.90;;;;;;4374266;28;659352;-63
2022/11/30 12:43:51;;;;;;;32.13;16.43;;;-0.70;99.90;;;;;;4385056;28;659734;-63
2022/11/30 12:46:40;;;;;;;36.92;16.70;;;-0.70;99.90;;;;;;4393992;28;658905;-63
2022/11/30 12:49:39;;;;;;;32.80;16.97;;;-0.70;99.90;;;;;;4388837;28;659383;-64
2022/11/30 12:52:32;;;;;;;37.83;17.02;;;-0.70;99.90;;;;;;4375067;28;660730;-64
2022/11/30 12:55:26;;;;;;;38.80;19.20;;;-0.70;99.90;;;;;;4393619;28;658955;-64
2022/11/30 12:58:16;;;;;;;40.95;18.48;;;-0.70;99.90;;;;;;4392559;28;659111;-65
2022/11/30 13:01:14;;;;;;;39.53;18.80;;;-0.70;99.90;;;;;;4598620;28;659925;-63
2022/11/30 13:04:03;;;;;;;45.63;22.33;;;-0.70;99.90;;;;;;4615612;28;535973;-63
2022/11/30 13:06:52;;;;;;;39.20;18.60;;;-0.70;99.90;;;;;;4395959;28;658723;-65
2022/11/30 13:09:41;;;;;;;40.60;19.53;;;-0.80;99.90;;;;;;4413341;28;659186;-64
2022/11/30 13:12:34;;;;;;;45.17;21.23;;;-0.80;99.90;;;;;;4392919;28;659702;-63
2022/11/30 13:15:22;;;;;;;41.83;20.60;;;-0.80;99.90;;;;;;4393642;28;659093;-64
2022/11/30 13:18:10;;;;;;;44.23;20.97;;;-0.80;99.90;;;;;;4412080;28;658862;-65
2022/11/30 13:21:00;;;;;;;42.23;20.00;;;-0.80;99.90;;;;;;4412563;28;660825;-65
2022/11/30 13:23:49;;;;;;;40.47;20.00;;;-0.80;99.90;;;;;;4392026;28;660199;-63
2022/11/30 13:26:39;;;;;;;36.47;18.07;;;-0.80;99.90;;;;;;4394581;28;658466;-63
2022/11/30 13:29:49;;;;;;;41.67;19.90;;;-0.90;99.90;;;;;;4392597;28;659053;-65
2022/11/30 13:32:36;;;;;;;35.70;17.50;;;-0.80;99.90;;;;;;4395937;28;658849;-62
2022/11/30 13:35:41;;;;;;;38.30;17.07;;;-1.00;99.90;;;;;;4410042;28;659162;-63
2022/11/30 13:38:29;;;;;;;36.03;17.45;;;-1.00;99.90;;;;;;4389703;28;658966;-65
2022/11/30 13:41:20;;;;;;;35.00;16.73;;;-1.00;99.90;;;;;;4392282;28;659059;-64
2022/11/30 13:44:23;;;;;;;45.23;19.37;;;-0.90;99.90;;;;;;4399335;28;658539;-63
2022/11/30 13:47:17;;;;;;;40.85;17.60;;;-0.90;99.90;;;;;;4395541;28;659195;-65
2022/11/30 13:50:07;;;;;;;42.23;19.90;;;-1.00;99.90;;;;;;4408096;28;658342;-65
2022/11/30 13:53:22;;;;;;;38.40;18.90;;;-1.00;99.90;;;;;;4411844;28;658347;-63
2022/11/30 13:56:31;;;;;;;43.03;20.47;;;-1.00;99.90;;;;;;4395813;28;659109;-63
2022/11/30 13:59:39;;;;;;;45.03;20.73;;;-1.00;99.90;;;;;;4389797;28;659135;-63
2022/11/30 14:02:53;;;;;;;49.97;21.90;;;-1.00;99.90;;;;;;4368906;28;660279;-63
2022/11/30 14:05:41;;;;;;;58.43;23.00;;;-1.00;99.90;;;;;;4382379;28;658434;-65
2022/11/30 14:08:37;;;;;;;106.03;40.07;;;-1.10;99.90;;;;;;4413173;28;659243;-63
2022/11/30 14:11:38;;;;;;;102.87;38.63;;;-1.00;99.90;;;;;;4392747;28;659485;-63